createdAt,value
2022-12-11T00:01:18.549Z,-0.68
2022-12-11T00:03:47.098Z,-0.63
2022-12-11T00:06:16.276Z,-0.63
2022-12-11T00:08:44.457Z,-0.72
2022-12-11T00:11:13.919Z,-0.74
2022-12-11T00:13:42.164Z,-0.69
2022-12-11T00:16:10.892Z,-0.77
2022-12-11T00:18:40.717Z,-0.81
2022-12-11T00:21:09.664Z,-0.74
2022-12-11T00:23:38.316Z,-0.69
2022-12-11T00:26:07.543Z,-0.77
2022-12-11T00:28:36.447Z,-0.70
2022-12-11T00:31:05.068Z,-0.69
2022-12-11T00:33:33.224Z,-0.62
2022-12-11T00:36:02.762Z,-0.72
2022-12-11T00:38:30.903Z,-0.67
2022-12-11T00:40:59.607Z,-0.59
2022-12-11T00:43:27.784Z,-0.64
2022-12-11T00:45:56.081Z,-0.70
2022-12-11T00:48:24.249Z,-0.73
2022-12-11T00:50:52.426Z,-0.69
2022-12-11T00:53:22.465Z,-0.63
2022-12-11T00:55:50.592Z,-0.73
2022-12-11T00:58:18.977Z,-0.72
2022-12-11T01:00:48.238Z,-0.77
2022-12-11T01:03:17.052Z,-0.68
2022-12-11T01:05:52.219Z,-0.72
2022-12-11T01:08:22.427Z,-0.71
2022-12-11T01:10:49.732Z,-0.60
2022-12-11T01:13:18.015Z,-0.50
2022-12-11T01:15:46.696Z,-0.60
2022-12-11T01:18:15.284Z,-0.54
2022-12-11T01:20:43.813Z,-0.54
2022-12-11T01:23:13.404Z,-0.49
2022-12-11T01:25:43.332Z,-0.50
2022-12-11T01:28:11.925Z,-0.54
2022-12-11T01:30:41.613Z,-0.54
2022-12-11T01:33:10.030Z,-0.51
2022-12-11T01:35:39.415Z,-0.48
2022-12-11T01:38:07.634Z,-0.41
2022-12-11T01:40:35.838Z,-0.38
2022-12-11T01:43:05.478Z,-0.35
2022-12-11T01:45:37.016Z,-0.39
2022-12-11T01:48:07.601Z,-0.29
2022-12-11T01:50:37.640Z,-0.35
2022-12-11T01:53:08.018Z,-0.31
2022-12-11T01:55:36.666Z,-0.30
2022-12-11T01:58:07.102Z,-0.31
2022-12-11T02:00:35.532Z,-0.29
2022-12-11T02:03:03.995Z,-0.20
2022-12-11T02:05:32.207Z,-0.25
2022-12-11T02:08:02.514Z,-0.31
2022-12-11T02:10:38.034Z,-0.21
2022-12-11T02:13:10.297Z,-0.29
2022-12-11T02:15:43.056Z,-0.30
2022-12-11T02:18:15.756Z,-0.26
2022-12-11T02:20:48.141Z,-0.21
2022-12-11T02:23:28.281Z,-0.14
2022-12-11T02:26:03.957Z,-0.21
2022-12-11T02:28:35.946Z,-0.15
2022-12-11T02:31:06.810Z,-0.12
2022-12-11T02:33:37.349Z,-0.13
2022-12-11T02:36:08.025Z,-0.20
2022-12-11T02:38:40.076Z,-0.28
2022-12-11T02:41:09.171Z,-0.29
2022-12-11T02:43:39.516Z,-0.22
2022-12-11T02:46:08.771Z,-0.21
2022-12-11T02:48:37.807Z,-0.15
2022-12-11T02:51:07.797Z,-0.20
2022-12-11T02:53:38.616Z,-0.19
2022-12-11T02:56:09.577Z,-0.14
2022-12-11T02:58:41.527Z,-0.17
2022-12-11T03:01:10.043Z,-0.20
2022-12-11T03:03:40.456Z,-0.26
2022-12-11T03:06:10.219Z,-0.35
2022-12-11T03:08:38.755Z,-0.35
2022-12-11T03:11:10.850Z,-0.27
2022-12-11T03:13:41.386Z,-0.30
2022-12-11T03:16:13.206Z,-0.30
2022-12-11T03:18:45.785Z,-0.30
2022-12-11T03:21:31.412Z,-0.28
2022-12-11T03:24:04.085Z,-0.28
2022-12-11T03:26:37.100Z,-0.18
2022-12-11T03:29:12.302Z,-0.22
2022-12-11T03:31:44.221Z,-0.30
2022-12-11T03:34:14.887Z,-0.28
2022-12-11T03:36:44.600Z,-0.22
2022-12-11T03:39:15.454Z,-0.16
2022-12-11T03:41:45.057Z,-0.12
2022-12-11T03:44:15.114Z,-0.08
2022-12-11T03:46:44.463Z,-0.19
2022-12-11T03:49:16.019Z,-0.16
2022-12-11T03:51:45.174Z,-0.10
2022-12-11T03:54:13.924Z,-0.11
2022-12-11T03:56:44.157Z,-0.06
2022-12-11T03:59:13.914Z,-0.11
2022-12-11T04:01:42.329Z,-0.08
2022-12-11T04:04:10.904Z,-0.20
2022-12-11T04:06:39.204Z,-0.28
2022-12-11T04:09:07.539Z,-0.18
2022-12-11T04:11:35.731Z,-0.19
2022-12-11T04:14:27.579Z,-0.14
2022-12-11T04:16:57.503Z,-0.15
2022-12-11T04:19:43.492Z,-0.14
2022-12-11T04:22:29.974Z,-0.11
2022-12-11T04:24:58.444Z,-0.11
2022-12-11T04:27:44.304Z,-0.17
2022-12-11T04:30:15.436Z,-0.19
2022-12-11T04:32:44.983Z,-0.21
2022-12-11T04:35:13.693Z,-0.29
2022-12-11T04:37:42.349Z,-0.23
2022-12-11T04:40:12.036Z,-0.15
2022-12-11T04:42:40.404Z,-0.29
2022-12-11T04:45:09.780Z,-0.28
2022-12-11T04:47:38.611Z,-0.23
2022-12-11T04:50:09.518Z,-0.21
2022-12-11T04:52:37.954Z,-0.21
2022-12-11T04:55:06.692Z,-0.17
2022-12-11T04:57:34.924Z,-0.14
2022-12-11T05:00:04.687Z,-0.10
2022-12-11T05:02:35.440Z,-0.15
2022-12-11T05:05:04.696Z,-0.22
2022-12-11T05:07:34.351Z,-0.25
2022-12-11T05:10:02.897Z,-0.25
2022-12-11T05:12:32.574Z,-0.29
2022-12-11T05:15:00.772Z,-0.31
2022-12-11T05:17:29.336Z,-0.33
2022-12-11T05:19:57.834Z,-0.28
2022-12-11T05:22:26.141Z,-0.28
2022-12-11T05:24:55.723Z,-0.32
2022-12-11T05:27:24.361Z,-0.28
2022-12-11T05:29:59.087Z,-0.30
2022-12-11T05:32:28.077Z,-0.33
2022-12-11T05:34:56.319Z,-0.32
2022-12-11T05:37:24.558Z,-0.27
2022-12-11T05:39:52.798Z,-0.32
2022-12-11T05:42:27.150Z,-0.30
2022-12-11T05:44:57.235Z,-0.29
2022-12-11T05:47:25.525Z,-0.32
2022-12-11T05:49:54.014Z,-0.35
2022-12-11T05:52:22.646Z,-0.44
2022-12-11T05:54:51.208Z,-0.36
2022-12-11T05:57:19.583Z,-0.35
2022-12-11T05:59:49.274Z,-0.29
2022-12-11T06:02:17.614Z,-0.31
2022-12-11T06:04:45.901Z,-0.30
2022-12-11T06:07:14.563Z,-0.29
2022-12-11T06:09:43.022Z,-0.32
2022-12-11T06:12:11.302Z,-0.38
2022-12-11T06:14:40.881Z,-0.32
2022-12-11T06:17:10.514Z,-0.23
2022-12-11T06:19:38.809Z,-0.28
2022-12-11T06:22:07.305Z,-0.22
2022-12-11T06:24:35.548Z,-0.26
2022-12-11T06:27:03.803Z,-0.18
2022-12-11T06:29:32.198Z,-0.16
2022-12-11T06:32:00.457Z,-0.18
2022-12-11T06:34:30.518Z,-0.16
2022-12-11T06:36:58.795Z,-0.15
2022-12-11T06:39:27.030Z,-0.18
2022-12-11T06:41:55.965Z,-0.28
2022-12-11T06:44:24.914Z,-0.14
2022-12-11T06:46:53.109Z,-0.23
2022-12-11T06:49:21.665Z,-0.24
2022-12-11T06:51:51.482Z,-0.20
2022-12-11T06:54:19.938Z,-0.21
2022-12-11T06:56:48.341Z,-0.21
2022-12-11T06:59:16.473Z,-0.24
2022-12-11T07:01:44.736Z,-0.16
2022-12-11T07:04:12.888Z,-0.15
2022-12-11T07:06:41.474Z,-0.15
2022-12-11T07:09:11.162Z,-0.10
2022-12-11T07:11:39.416Z,-0.17
2022-12-11T07:14:07.603Z,-0.14
2022-12-11T07:16:35.948Z,-0.16
2022-12-11T07:19:04.740Z,-0.14
2022-12-11T07:21:33.182Z,-0.15
2022-12-11T07:24:01.403Z,-0.17
2022-12-11T07:26:30.989Z,-0.11
2022-12-11T07:28:59.717Z,-0.17
2022-12-11T07:31:28.906Z,-0.16
2022-12-11T07:33:57.909Z,-0.25
2022-12-11T07:36:26.441Z,-0.13
2022-12-11T07:38:55.148Z,-0.15
2022-12-11T07:41:24.041Z,-0.11
2022-12-11T07:43:53.632Z,-0.11
2022-12-11T07:46:22.746Z,-0.12
2022-12-11T07:48:51.365Z,-0.09
2022-12-11T07:51:22.725Z,-0.11
2022-12-11T07:53:51.598Z,-0.11
2022-12-11T07:56:20.402Z,-0.10
2022-12-11T07:58:48.885Z,-0.04
2022-12-11T08:01:18.984Z,-0.03
2022-12-11T08:03:47.222Z,-0.01
2022-12-11T08:06:16.011Z,-0.04
2022-12-11T08:08:44.360Z,-0.05
2022-12-11T08:11:13.173Z,-0.02
2022-12-11T08:13:41.674Z,0.08
2022-12-11T08:16:10.708Z,0.11
2022-12-11T08:18:41.012Z,0.20
2022-12-11T08:21:19.847Z,0.14
2022-12-11T08:23:48.477Z,0.18
2022-12-11T08:26:17.992Z,0.18
2022-12-11T08:28:46.501Z,0.19
2022-12-11T08:31:15.533Z,0.15
2022-12-11T08:33:45.479Z,-0.01
2022-12-11T08:36:14.583Z,-0.05
2022-12-11T08:38:42.920Z,0.04
2022-12-11T08:41:12.153Z,0.04
2022-12-11T08:43:40.879Z,0.03
2022-12-11T08:46:09.548Z,0.11
2022-12-11T08:48:40.966Z,0.06
2022-12-11T08:51:13.528Z,0.07
2022-12-11T08:53:42.067Z,0.20
2022-12-11T08:56:11.204Z,0.20
2022-12-11T08:58:39.542Z,0.17
2022-12-11T09:01:08.697Z,0.25
2022-12-11T09:03:37.110Z,0.32
2022-12-11T09:06:06.694Z,0.21
2022-12-11T09:08:36.584Z,0.29
2022-12-11T09:11:05.194Z,0.40
2022-12-11T09:13:33.909Z,0.47
2022-12-11T09:16:04.334Z,0.54
2022-12-11T09:18:32.752Z,0.52
2022-12-11T09:21:01.955Z,0.53
2022-12-11T09:23:30.214Z,0.46
2022-12-11T09:25:59.878Z,0.46
2022-12-11T09:28:28.146Z,0.53
2022-12-11T09:30:56.668Z,0.59
2022-12-11T09:33:25.083Z,0.47
2022-12-11T09:35:58.115Z,0.49
2022-12-11T09:38:26.885Z,0.41
2022-12-11T09:40:55.375Z,0.33
2022-12-11T09:43:32.109Z,0.41
2022-12-11T09:46:03.834Z,0.36
2022-12-11T09:48:34.022Z,0.33
2022-12-11T09:51:06.637Z,0.42
2022-12-11T09:53:36.378Z,0.45
2022-12-11T09:56:10.742Z,0.50
2022-12-11T09:58:46.534Z,0.42
2022-12-11T10:01:19.705Z,0.46
2022-12-11T10:03:55.031Z,0.43
2022-12-11T10:06:25.091Z,0.38
2022-12-11T10:08:59.053Z,0.42
2022-12-11T10:11:36.345Z,0.38
2022-12-11T10:14:09.690Z,0.47
2022-12-11T10:16:40.708Z,0.57
2022-12-11T10:19:15.808Z,0.56
2022-12-11T10:21:44.498Z,0.53
2022-12-11T10:24:34.643Z,0.57
2022-12-11T10:27:14.240Z,0.56
2022-12-11T10:29:44.064Z,0.58
2022-12-11T10:32:16.909Z,0.64
2022-12-11T10:34:48.618Z,0.66
2022-12-11T10:37:16.963Z,0.55
2022-12-11T10:39:45.225Z,0.62
2022-12-11T10:42:24.481Z,0.58
2022-12-11T10:44:58.536Z,0.57
2022-12-11T10:47:27.125Z,0.65
2022-12-11T10:49:56.522Z,0.67
2022-12-11T10:52:26.458Z,0.67
2022-12-11T10:54:57.367Z,0.63
2022-12-11T10:57:28.727Z,0.58
2022-12-11T10:59:58.919Z,0.57
2022-12-11T11:02:29.981Z,0.60
2022-12-11T11:04:59.778Z,0.62
2022-12-11T11:07:29.181Z,0.59
2022-12-11T11:10:07.794Z,0.55
2022-12-11T11:12:38.581Z,0.61
2022-12-11T11:15:11.957Z,0.62
2022-12-11T11:17:54.221Z,0.56
2022-12-11T11:20:25.058Z,0.56
2022-12-11T11:22:55.683Z,0.57
2022-12-11T11:25:25.321Z,0.62
2022-12-11T11:27:55.301Z,0.55
2022-12-11T11:30:26.392Z,0.58
2022-12-11T11:32:55.998Z,0.72
2022-12-11T11:35:25.350Z,0.65
2022-12-11T11:38:03.697Z,0.64
2022-12-11T11:40:34.384Z,0.58
2022-12-11T11:43:06.999Z,0.68
2022-12-11T11:45:40.698Z,0.73
2022-12-11T11:48:15.016Z,0.70
2022-12-11T11:50:46.414Z,0.71
2022-12-11T11:53:18.231Z,0.76
2022-12-11T11:55:50.166Z,0.71
2022-12-11T11:58:24.152Z,0.61
2022-12-11T12:00:55.881Z,0.55
2022-12-11T12:03:25.573Z,0.46
2022-12-11T12:05:56.406Z,0.42
2022-12-11T12:08:34.988Z,0.42
2022-12-11T12:11:06.131Z,0.45
2022-12-11T12:13:50.764Z,0.53
2022-12-11T12:16:51.582Z,0.56
2022-12-11T12:19:17.118Z,0.57
2022-12-11T12:21:48.273Z,0.56
2022-12-11T12:24:24.931Z,0.61
2022-12-11T12:26:58.160Z,0.55
2022-12-11T12:29:33.061Z,0.62
2022-12-11T12:32:09.594Z,0.62
2022-12-11T12:34:44.592Z,0.63
2022-12-11T12:37:18.306Z,0.66
2022-12-11T12:39:52.190Z,0.63
2022-12-11T12:42:24.990Z,0.71
2022-12-11T12:44:59.167Z,0.57
2022-12-11T12:47:29.750Z,0.57
2022-12-11T12:50:00.507Z,0.67
2022-12-11T12:52:31.922Z,0.54
2022-12-11T12:55:15.291Z,0.47
2022-12-11T12:57:47.167Z,0.48
2022-12-11T13:00:26.692Z,0.50
2022-12-11T13:02:57.204Z,0.51
2022-12-11T13:05:27.257Z,0.50
2022-12-11T13:07:57.225Z,0.58
2022-12-11T13:10:27.443Z,0.63
2022-12-11T13:12:55.999Z,0.70
2022-12-11T13:15:30.282Z,0.54
2022-12-11T13:18:00.573Z,0.50
2022-12-11T13:20:30.403Z,0.58
2022-12-11T13:23:18.673Z,0.58
2022-12-11T13:25:51.683Z,0.67
2022-12-11T13:28:23.344Z,0.62
2022-12-11T13:30:57.906Z,0.66
2022-12-11T13:33:28.071Z,0.67
2022-12-11T13:36:18.898Z,0.70
2022-12-11T13:38:51.880Z,0.67
2022-12-11T13:41:20.671Z,0.57
2022-12-11T13:43:50.470Z,0.58
2022-12-11T13:46:22.062Z,0.61
2022-12-11T13:48:55.294Z,0.67
2022-12-11T13:51:28.174Z,0.68
2022-12-11T13:54:03.659Z,0.68
2022-12-11T13:56:32.354Z,0.77
2022-12-11T13:59:00.658Z,0.79
2022-12-11T14:01:30.989Z,0.85
2022-12-11T14:04:02.840Z,0.88
2022-12-11T14:06:32.145Z,0.88
2022-12-11T14:09:01.873Z,0.84
2022-12-11T14:11:32.332Z,0.81
2022-12-11T14:14:02.425Z,0.78
2022-12-11T14:16:31.133Z,0.81
2022-12-11T14:19:04.968Z,0.80
2022-12-11T14:21:34.371Z,0.79
2022-12-11T14:24:03.866Z,0.75
2022-12-11T14:26:32.853Z,0.66
2022-12-11T14:29:02.794Z,0.61
2022-12-11T14:31:33.589Z,0.59
2022-12-11T14:34:05.860Z,0.57
2022-12-11T14:36:36.350Z,0.58
2022-12-11T14:39:07.045Z,0.57
2022-12-11T14:41:42.016Z,0.57
2022-12-11T14:44:14.178Z,0.52
2022-12-11T14:46:44.825Z,0.53
2022-12-11T14:49:21.399Z,0.49
2022-12-11T14:51:51.463Z,0.45
2022-12-11T14:54:29.208Z,0.43
2022-12-11T14:56:57.972Z,0.42
2022-12-11T14:59:32.101Z,0.47
2022-12-11T15:02:02.216Z,0.49
2022-12-11T15:04:33.441Z,0.47
2022-12-11T15:07:02.016Z,0.37
2022-12-11T15:09:37.291Z,0.41
2022-12-11T15:12:11.103Z,0.45
2022-12-11T15:14:43.827Z,0.46
2022-12-11T15:17:14.620Z,0.51
2022-12-11T15:19:48.020Z,0.42
2022-12-11T15:22:17.526Z,0.38
2022-12-11T15:24:47.127Z,0.37
2022-12-11T15:27:22.685Z,0.32
2022-12-11T15:29:52.066Z,0.31
2022-12-11T15:32:21.764Z,0.36
2022-12-11T15:34:52.836Z,0.36
2022-12-11T15:37:22.955Z,0.41
2022-12-11T15:39:51.292Z,0.30
2022-12-11T15:42:23.324Z,0.29
2022-12-11T15:44:51.910Z,0.38
2022-12-11T15:47:22.395Z,0.39
2022-12-11T15:49:54.677Z,0.43
2022-12-11T15:52:23.752Z,0.49
2022-12-11T15:54:52.367Z,0.43
2022-12-11T15:57:22.044Z,0.36
2022-12-11T15:59:51.548Z,0.38
2022-12-11T16:02:19.853Z,0.39
2022-12-11T16:04:48.423Z,0.41
2022-12-11T16:07:18.888Z,0.43
2022-12-11T16:09:47.695Z,0.44
2022-12-11T16:12:16.188Z,0.41
2022-12-11T16:14:45.240Z,0.46
2022-12-11T16:17:15.112Z,0.43
2022-12-11T16:19:43.973Z,0.41
2022-12-11T16:22:13.896Z,0.49
2022-12-11T16:24:43.751Z,0.45
2022-12-11T16:27:12.163Z,0.41
2022-12-11T16:29:41.322Z,0.39
2022-12-11T16:32:09.958Z,0.44
2022-12-11T16:34:38.395Z,0.43
2022-12-11T16:37:07.020Z,0.42
2022-12-11T16:39:36.802Z,0.40
2022-12-11T16:42:07.231Z,0.33
2022-12-11T16:44:40.914Z,0.34
2022-12-11T16:47:14.219Z,0.32
2022-12-11T16:49:43.163Z,0.38
2022-12-11T16:52:11.682Z,0.30
2022-12-11T16:54:40.040Z,0.35
2022-12-11T16:57:09.609Z,0.27
2022-12-11T16:59:38.664Z,0.23
2022-12-11T17:02:06.957Z,0.24
2022-12-11T17:04:35.709Z,0.23
2022-12-11T17:07:06.346Z,0.22
2022-12-11T17:09:35.305Z,0.21
2022-12-11T17:12:04.983Z,0.22
2022-12-11T17:14:34.629Z,0.33
2022-12-11T17:17:02.852Z,0.30
2022-12-11T17:19:31.349Z,0.29
2022-12-11T17:22:03.069Z,0.30
2022-12-11T17:24:31.976Z,0.33
2022-12-11T17:27:00.642Z,0.29
2022-12-11T17:29:29.324Z,0.29
2022-12-11T17:31:59.359Z,0.22
2022-12-11T17:34:28.415Z,0.22
2022-12-11T17:36:59.133Z,0.28
2022-12-11T17:39:27.469Z,0.27
2022-12-11T17:41:56.249Z,0.27
2022-12-11T17:44:26.459Z,0.26
2022-12-11T17:46:54.827Z,0.26
2022-12-11T17:49:24.618Z,0.24
2022-12-11T17:51:55.274Z,0.24
2022-12-11T17:54:24.136Z,0.32
2022-12-11T17:56:52.607Z,0.32
2022-12-11T17:59:21.026Z,0.29
2022-12-11T18:01:49.717Z,0.28
2022-12-11T18:04:17.941Z,0.28
2022-12-11T18:06:47.633Z,0.30
2022-12-11T18:09:16.264Z,0.41
2022-12-11T18:11:44.500Z,0.46
2022-12-11T18:14:17.167Z,0.53
2022-12-11T18:16:46.613Z,0.66
2022-12-11T18:19:15.665Z,0.67
2022-12-11T18:21:45.744Z,0.72
2022-12-11T18:24:15.655Z,0.79
2022-12-11T18:26:44.062Z,0.78
2022-12-11T18:29:12.250Z,0.81
2022-12-11T18:31:42.933Z,0.74
2022-12-11T18:34:11.997Z,0.70
2022-12-11T18:36:41.666Z,0.66
2022-12-11T18:39:10.069Z,0.69
2022-12-11T18:41:39.897Z,0.77
2022-12-11T18:44:10.152Z,0.81
2022-12-11T18:46:39.390Z,0.77
2022-12-11T18:49:07.712Z,0.78
2022-12-11T18:51:35.947Z,0.76
2022-12-11T18:54:04.212Z,0.88
2022-12-11T18:56:32.528Z,1.05
2022-12-11T18:59:02.302Z,1.10
2022-12-11T19:01:32.981Z,1.00
2022-12-11T19:04:04.544Z,0.86
2022-12-11T19:06:35.493Z,0.82
2022-12-11T19:09:05.216Z,0.77
2022-12-11T19:11:34.184Z,0.81
2022-12-11T19:14:05.087Z,0.80
2022-12-11T19:16:34.530Z,0.79
2022-12-11T19:19:03.586Z,0.74
2022-12-11T19:21:34.065Z,0.64
2022-12-11T19:24:02.383Z,0.64
2022-12-11T19:26:31.028Z,0.58
2022-12-11T19:29:00.167Z,0.53
2022-12-11T19:31:31.109Z,0.50
2022-12-11T19:33:59.527Z,0.50
2022-12-11T19:36:29.169Z,0.61
2022-12-11T19:39:01.425Z,0.57
2022-12-11T19:41:30.999Z,0.76
2022-12-11T19:44:00.005Z,0.83
2022-12-11T19:46:29.251Z,0.89
2022-12-11T19:48:59.668Z,0.78
2022-12-11T19:51:29.604Z,0.76
2022-12-11T19:53:58.408Z,0.93
2022-12-11T19:56:26.950Z,0.87
2022-12-11T19:58:55.312Z,0.81
2022-12-11T20:01:26.392Z,0.88
2022-12-11T20:03:55.906Z,0.98
2022-12-11T20:06:25.836Z,0.97
2022-12-11T20:08:54.110Z,0.84
2022-12-11T20:11:22.569Z,0.75
2022-12-11T20:13:51.073Z,0.71
2022-12-11T20:16:33.673Z,0.71
2022-12-11T20:19:08.291Z,0.84
2022-12-11T20:21:38.118Z,0.72
2022-12-11T20:24:06.858Z,0.82
2022-12-11T20:26:40.955Z,0.87
2022-12-11T20:29:09.480Z,0.89
2022-12-11T20:31:37.829Z,0.92
2022-12-11T20:34:06.864Z,0.70
2022-12-11T20:36:35.717Z,0.78
2022-12-11T20:39:05.999Z,0.65
2022-12-11T20:41:34.441Z,0.73
2022-12-11T20:44:02.906Z,0.65
2022-12-11T20:46:31.279Z,0.81
2022-12-11T20:48:59.759Z,0.81
2022-12-11T20:51:29.062Z,0.89
2022-12-11T20:53:59.895Z,0.94
2022-12-11T20:56:30.796Z,0.79
2022-12-11T20:59:00.069Z,0.84
2022-12-11T21:01:29.682Z,0.71
2022-12-11T21:03:58.600Z,0.64
2022-12-11T21:06:28.316Z,0.59
2022-12-11T21:08:56.820Z,0.58
2022-12-11T21:11:25.299Z,0.56
2022-12-11T21:13:54.958Z,0.59
2022-12-11T21:16:23.303Z,0.56
2022-12-11T21:18:51.946Z,0.66
2022-12-11T21:21:20.164Z,0.56
2022-12-11T21:23:48.608Z,0.57
2022-12-11T21:26:17.027Z,0.57
2022-12-11T21:28:47.382Z,0.72
2022-12-11T21:31:18.304Z,0.59
2022-12-11T21:33:46.914Z,0.53
2022-12-11T21:36:16.012Z,0.57
2022-12-11T21:38:45.841Z,0.46
2022-12-11T21:41:15.681Z,0.47
2022-12-11T21:44:19.283Z,0.39
2022-12-11T21:46:34.770Z,0.36
2022-12-11T21:49:03.300Z,0.44
2022-12-11T21:51:36.468Z,0.44
2022-12-11T21:54:07.287Z,0.39
2022-12-11T21:56:35.881Z,0.32
2022-12-11T21:59:04.752Z,0.37
2022-12-11T22:01:35.988Z,0.34
2022-12-11T22:04:05.110Z,0.26
2022-12-11T22:06:33.497Z,0.24
2022-12-11T22:09:01.949Z,0.31
2022-12-11T22:11:31.996Z,0.22
2022-12-11T22:14:00.711Z,0.16
2022-12-11T22:16:29.472Z,0.10
2022-12-11T22:18:59.131Z,0.08
2022-12-11T22:21:27.347Z,0.08
2022-12-11T22:23:55.595Z,0.09
2022-12-11T22:26:24.763Z,0.11
2022-12-11T22:28:53.791Z,0.07
2022-12-11T22:31:23.272Z,0.11
2022-12-11T22:33:53.559Z,0.11
2022-12-11T22:36:24.092Z,0.16
2022-12-11T22:38:52.670Z,0.19
2022-12-11T22:41:23.685Z,0.19
2022-12-11T22:43:52.395Z,0.14
2022-12-11T22:46:21.467Z,0.10
2022-12-11T22:48:49.694Z,0.12
2022-12-11T22:51:18.043Z,0.17
2022-12-11T22:53:47.800Z,0.13
2022-12-11T22:56:16.153Z,0.21
2022-12-11T22:58:44.407Z,0.30
2022-12-11T23:01:14.102Z,0.34
2022-12-11T23:03:43.049Z,0.34
2022-12-11T23:06:14.030Z,0.37
2022-12-11T23:08:42.931Z,0.32
2022-12-11T23:11:14.227Z,0.37
2022-12-11T23:13:42.655Z,0.37
2022-12-11T23:16:11.293Z,0.43
2022-12-11T23:18:39.589Z,0.40
2022-12-11T23:21:08.590Z,0.37
2022-12-11T23:23:37.407Z,0.33
2022-12-11T23:26:06.906Z,0.27
2022-12-11T23:28:36.995Z,0.22
2022-12-11T23:31:05.795Z,0.21
2022-12-11T23:33:34.175Z,0.13
2022-12-11T23:36:03.000Z,0.15
2022-12-11T23:38:31.389Z,0.22
2022-12-11T23:41:00.351Z,0.19
2022-12-11T23:43:28.832Z,0.13
2022-12-11T23:45:58.653Z,0.08
2022-12-11T23:48:26.888Z,0.14
2022-12-11T23:50:58.684Z,0.09
2022-12-11T23:53:27.183Z,0.06
2022-12-11T23:55:55.814Z,0.06
2022-12-11T23:58:24.040Z,0.11
